• Join FlightAware (Why Join?)
  • Login
  • US Flag 
05:40PM EDT


 

Airport Tracker/Info


-or-


 

Live Flight TrackerFlight Track Log ✈ XOJ789 ✈ 07-Jul-2013 ✈ KBED - KVNY

Flight Track Log - Related Links

Times and Time Zones

All times are in EDT time to prevent confusion due to time zone crossing. See the XOJ789 flight status page for this flight to view local times or setup timezone preferences in your user account.

Time Position Orientation Groundspeed Altitude Reporting Facility
EDT Latitude Longitude Course Direction KTS MPH feet Rate Location/Type
10:22AM 42.4667 -71.3167 350° North 220 253 1,100  Level KA90
10:24AM 42.5703 -71.3406 350° North 263 303 4,500 1,680 Climbing Boston Center
10:25AM 42.6367 -71.3197 13° North 245 282 6,600 2,220 Climbing Boston Center
10:26AM 42.7114 -71.3042 North 250 288 9,000 1,800 Climbing Boston Center
10:28AM 42.7767 -71.3483 334° Northwest 256 295 10,600 1,740 Climbing Boston Center
10:29AM 42.8006 -71.4753 284° West 269 310 12,900 2,160 Climbing Boston Center
10:30AM 42.8097 -71.5797 277° West 306 352 15,000 2,100 Climbing Boston Center
10:31AM 42.8211 -71.7097 277° West 313 360 17,100 1,740 Climbing Boston Center
10:32AM 42.8322 -71.8144 278° West 313 360 18,500 1,260 Climbing Boston Center
10:33AM 42.8475 -71.9503 279° West 319 367 19,700 1,080 Climbing Boston Center
10:34AM 42.8583 -72.0803 277° West 332 382 20,700 900 Climbing Boston Center
10:35AM 42.8692 -72.2078 277° West 337 388 21,600 840 Climbing Boston Center
10:36AM 42.8922 -72.3239 285° West 343 395 22,400 900 Climbing Boston Center
10:37AM 42.9172 -72.4600 284° West 361 415 23,500 1,200 Climbing Boston Center
10:39AM 42.9669 -72.7353 284° West 380 437 26,100 1,320 Climbing Boston Center
10:40AM 42.9936 -72.8800 284° West 380 437 27,500 1,380 Climbing Boston Center
10:41AM 43.0283 -73.0308 288° West 374 430 28,900 1,140 Climbing Boston Center
10:42AM 43.0567 -73.1731 285° West 374 430 29,800 960 Climbing Boston Center
10:43AM 43.0889 -73.3186 287° West 380 437 30,900 960 Climbing Boston Center
10:44AM 43.1064 -73.4694 279° West 393 452 31,800 900 Climbing Boston Center
10:45AM 43.1133 -73.6289 273° West 406 467 32,700 780 Climbing Boston Center
10:46AM 43.1192 -73.8281 272° West 430 495 33,600 720 Climbing Boston Center
10:47AM 43.1214 -73.9931 271° West 436 502 34,500 1,200 Climbing Boston Center
10:48AM 43.1289 -74.1925 273° West 442 509 36,300 1,380 Climbing Boston Center
10:49AM 43.1306 -74.3547 271° West 442 509 37,600 1,500 Climbing Boston Center
10:50AM 43.1356 -74.5428 272° West 432 497 39,700 1,500 Climbing Boston Center
10:51AM 43.1386 -74.7022 272° West 426 490 40,600 660 Climbing Boston Center
10:52AM 43.1417 -74.8617 272° West 421 484 41,100 540 Climbing Boston Center
10:53AM 43.1444 -75.0211 271° West 421 484 41,700 540 Climbing Boston Center
10:54AM 43.1447 -75.1892 270° West 426 490 42,200 480 Climbing Boston Center
10:55AM 43.1467 -75.3544 271° West 437 503 42,700 360 Climbing Boston Center
10:56AM 43.1528 -75.5197 273° West 443 510 43,000 120 Climbing Boston Center
10:57AM 43.1544 -75.6850 271° West 443 510 43,000  Level Boston Center
11:00AM 43.1572 -76.0489 271° West 439 505 43,000  Level Cleveland Center
11:01AM 43.1406 -76.2125 262° West 439 505 43,000  Level Cleveland Center
11:02AM 43.1094 -76.3853 256° West 439 505 43,000  Level Cleveland Center
11:03AM 43.0861 -76.5489 259° West 439 505 43,000  Level Cleveland Center
11:04AM 43.0728 -76.7119 264° West 434 499 43,000  Level Cleveland Center
11:05AM 43.0589 -76.8578 263° West 434 499 43,000  Level Cleveland Center
11:06AM 43.0453 -77.0206 264° West 434 499 43,000  Level Cleveland Center
11:07AM 43.0294 -77.1892 263° West 434 499 43,000  Level Cleveland Center
11:08AM 43.0153 -77.3517 263° West 439 505 43,000  Level Cleveland Center
11:09AM 42.9992 -77.5200 263° West 439 505 43,000  Level Cleveland Center
11:10AM 42.9844 -77.6856 263° West 444 511 43,000  Level Cleveland Center
11:11AM 42.9661 -77.8681 262° West 444 511 43,000  Level Cleveland Center
11:12AM 42.9492 -78.0361 262° West 444 511 43,000  Level Cleveland Center
11:13AM 42.9317 -78.2011 262° West 449 517 43,000  Level Cleveland Center
11:14AM 42.9142 -78.3664 262° West 449 517 43,000  Level Cleveland Center
11:15AM 42.8964 -78.5314 262° West 449 517 43,000  Level Cleveland Center
11:16AM 42.8806 -78.7019 263° West 449 517 43,000  Level Cleveland Center
11:17AM 42.8622 -78.8667 261° West 449 517 43,000  Level Cleveland Center
11:18AM 42.8458 -79.0342 262° West 449 517 43,000  Level Cleveland Center
11:19AM 42.8269 -79.1961 261° West 449 517 43,000  Level Cleveland Center
11:20AM 42.8061 -79.3664 261° West 449 517 43,000  Level Cleveland Center
11:21AM 42.7889 -79.5308 262° West 449 517 43,000  Level Cleveland Center
11:22AM 42.7694 -79.6953 261° West 449 517 43,000  Level Cleveland Center
11:23AM 42.7519 -79.8622 262° West 449 517 43,000  Level Cleveland Center
11:24AM 42.7319 -80.0122 260° West 449 517 43,000  Level Cleveland Center
11:25AM 42.7097 -80.1792 260° West 449 517 43,000  Level Cleveland Center
11:26AM 42.6892 -80.3600 261° West 455 524 43,000  Level Cleveland Center
11:27AM 42.6686 -80.5267 261° West 449 517 43,000 240 Level Cleveland Center
11:28AM 42.6478 -80.6878 260° West 449 517 43,500 420 Climbing Cleveland Center
11:29AM 42.6267 -80.8542 260° West 449 517 43,900 420 Climbing Cleveland Center
11:30AM 42.6053 -81.0147 260° West 449 517 44,400 420 Climbing Cleveland Center
11:31AM 42.5836 -81.1781 260° West 444 511 44,800 300 Climbing Cleveland Center
11:32AM 42.5639 -81.3386 261° West 445 512 45,000 60 Climbing Cleveland Center
11:33AM 42.5419 -81.5075 260° West 450 518 45,000  Level Cleveland Center
11:34AM 42.5217 -81.6678 260° West 445 512 45,000  Level Cleveland Center
11:35AM 42.4975 -81.8139 257° West 453 521 45,000  Level Cleveland Center
11:36AM 42.4767 -81.9850 261° West 453 521 45,000  Level Cleveland Center
11:37AM 42.4517 -82.1533 259° West 453 521 45,000  Level Cleveland Center
11:38AM 42.4283 -82.3272 260° West 463 533 45,000  Level Cleveland Center
11:39AM 42.4047 -82.5008 260° West 469 540 45,000  Level Cleveland Center
11:40AM 42.3786 -82.6717 258° West 469 540 45,000  Level Cleveland Center
11:41AM 42.3547 -82.8422 259° West 469 540 45,000  Level Cleveland Center
11:42AM 42.3281 -83.0183 258° West 469 540 45,000  Level Cleveland Center
11:43AM 42.3033 -83.1914 259° West 469 540 45,000  Level Cleveland Center
11:44AM 42.2761 -83.3756 259° West 489 563 45,000  Level Cleveland Center
11:45AM 42.2489 -83.5511 258° West 482 555 45,000  Level Cleveland Center
11:46AM 42.2186 -83.7486 258° West 493 567 45,000  Level Cleveland Center
11:47AM 42.1931 -83.9183 259° West 493 567 45,000  Level Cleveland Center
11:48AM 42.1500 -84.2086 259° West 475 547 45,000  Level Chicago Center
11:49AM 42.1222 -84.3836 258° West 477 549 45,000  Level Chicago Center
11:50AM 42.0931 -84.5581 257° West 478 550 45,000  Level Chicago Center
11:51AM 42.0656 -84.7317 258° West 476 548 45,000  Level Chicago Center
11:52AM 42.0306 -84.9406 257° West 477 549 45,000  Level Chicago Center
11:53AM 42.0025 -85.1150 258° West 478 550 45,000  Level Chicago Center
11:54AM 41.9764 -85.2747 258° West 475 547 45,000  Level Chicago Center
11:56AM 41.9417 -85.4792 257° West 476 548 45,000  Level Chicago Center
11:57AM 41.9139 -85.6500 258° West 477 549 45,000  Level Chicago Center
11:58AM 41.8831 -85.8183 256° West 472 543 45,000  Level Chicago Center
11:59AM 41.8542 -85.9886 257° West 471 542 45,000  Level Chicago Center
12:00PM 41.8239 -86.1575 257° West 470 541 45,000  Level Chicago Center
12:01PM 41.7858 -86.3617 256° West 471 542 45,000  Level Chicago Center
12:02PM 41.7558 -86.5306 257° West 468 539 45,000  Level Chicago Center
12:03PM 41.7253 -86.7022 257° West 473 544 45,000  Level Chicago Center
12:04PM 41.6911 -86.8933 257° West 471 542 45,000  Level Chicago Center
12:05PM 41.6578 -87.0617 255° West 471 542 45,000  Level Chicago Center
12:06PM 41.6264 -87.2353 256° West 478 550 45,000  Level Chicago Center
12:07PM 41.5947 -87.4069 256° West 477 549 45,000  Level Chicago Center
12:08PM 41.5614 -87.5789 256° West 483 556 45,000  Level Chicago Center
12:09PM 41.5219 -87.7853 256° West 484 557 45,000  Level Chicago Center
12:10PM 41.4936 -87.9331 256° West 482 555 45,000  Level Chicago Center
12:11PM 41.4533 -88.1447 256° West 490 564 45,000  Level Chicago Center
12:12PM 41.4164 -88.3303 255° West 492 566 45,000  Level Chicago Center
12:13PM 41.3814 -88.5047 255° West 493 567 45,000  Level Chicago Center
12:14PM 41.3456 -88.6800 255° West 494 568 45,000  Level Chicago Center
12:15PM 41.3092 -88.8556 255° West 497 572 45,000  Level Chicago Center
12:16PM 41.2744 -89.0322 255° West 498 573 45,000  Level Chicago Center
12:17PM 41.2328 -89.2394 255° West 498 573 45,000  Level Chicago Center
12:18PM 41.1978 -89.4133 255° West 493 567 45,000  Level Chicago Center
12:19PM 41.1775 -89.5894 261° West 487 560 45,000  Level Chicago Center
12:20PM 41.1586 -89.7669 262° West 490 564 45,000  Level Chicago Center
12:21PM 41.1389 -89.9419 262° West 487 560 45,000  Level Chicago Center
12:22PM 41.1167 -90.1531 262° West 487 560 45,000  Level Chicago Center
12:23PM 41.0947 -90.3314 261° West 494 568 45,000  Level Chicago Center
12:24PM 41.0744 -90.5056 261° West 484 557 45,000  Level Chicago Center
12:26PM 41.0553 -90.6783 262° West 478 550 45,000  Level Chicago Center
12:27PM 41.0347 -90.8506 261° West 477 549 45,000  Level Chicago Center
12:28PM 41.0100 -91.0581 261° West 477 549 45,000  Level Chicago Center
12:29PM 40.9889 -91.2269 261° West 470 541 45,000  Level Chicago Center
12:30PM 40.9678 -91.3944 261° West 470 541 45,000  Level Chicago Center
12:31PM 40.9475 -91.5589 261° West 461 531 45,000  Level Chicago Center
12:32PM 40.9272 -91.7225 261° West 458 527 45,000  Level Chicago Center
12:33PM 40.9031 -91.9181 261° West 454 522 45,000  Level Chicago Center
12:34PM 40.8822 -92.0781 260° West 449 517 45,000  Level Chicago Center
12:35PM 40.8608 -92.2386 260° West 449 517 45,000  Level Chicago Center
12:36PM 40.8406 -92.4008 261° West 453 521 45,000  Level Chicago Center
12:37PM 40.8144 -92.5942 260° West 454 522 45,000  Level Chicago Center
12:38PM 40.7928 -92.7558 260° West 455 524 45,000  Level Chicago Center
12:39PM 40.7717 -92.9164 260° West 453 521 45,000  Level Chicago Center
12:40PM 40.7478 -93.0794 259° West 458 527 45,000  Level Chicago Center
12:41PM 40.7203 -93.2736 259° West 456 525 45,000  Level Chicago Center
12:42PM 40.6978 -93.4358 260° West 456 525 45,000  Level Chicago Center
12:43PM 40.6758 -93.5972 260° West 455 524 45,000  Level Chicago Center
12:44PM 40.6508 -93.7592 259° West 457 526 45,000  Level Chicago Center
12:45PM 40.6294 -93.9197 260° West 454 522 45,000  Level Chicago Center
12:46PM 40.5994 -94.1142 259° West 456 525 45,000  Level Chicago Center
12:47PM 40.5750 -94.2750 259° West 453 521 45,000  Level Chicago Center
12:49PM 40.5403 -94.5047 259° West 458 527 45,000  Level Minneapolis Center
12:50PM 40.5150 -94.6683 259° West 456 525 45,000  Level Minneapolis Center
12:51PM 40.4881 -94.8350 258° West 460 529 45,000  Level Minneapolis Center
12:52PM 40.4583 -95.0339 259° West 461 531 45,000  Level Minneapolis Center
12:53PM 40.4325 -95.1989 258° West 461 531 45,000  Level Minneapolis Center
12:54PM 40.4064 -95.3647 258° West 462 532 45,000  Level Minneapolis Center
12:55PM 40.3789 -95.5311 258° West 463 533 45,000  Level Minneapolis Center
12:56PM 40.3531 -95.6972 259° West 464 534 45,000  Level Minneapolis Center
12:57PM 40.3250 -95.8625 257° West 464 534 45,000  Level Minneapolis Center
12:58PM 40.2931 -96.0581 258° West 458 527 45,000  Level Minneapolis Center
12:59PM 40.2656 -96.2258 258° West 465 535 45,000  Level Minneapolis Center
01:00PM 40.2372 -96.3914 257° West 466 536 45,000  Level Minneapolis Center
01:01PM 40.2086 -96.5583 257° West 469 540 45,000  Level Minneapolis Center
01:02PM 40.1800 -96.7253 257° West 469 540 45,000  Level Minneapolis Center
01:03PM 40.1511 -96.8933 257° West 472 543 45,000  Level Minneapolis Center
01:04PM 40.1225 -97.0617 258° West 473 544 45,000  Level Minneapolis Center
01:05PM 40.0858 -97.2619 257° West 473 544 45,000  Level Minneapolis Center
01:06PM 40.0575 -97.4250 257° West 474 545 45,000  Level Minneapolis Center
01:07PM 40.0275 -97.5922 257° West 473 544 45,000  Level Minneapolis Center
01:08PM 39.9964 -97.7614 257° West 477 549 45,000  Level Minneapolis Center
01:09PM 39.9647 -97.9300 256° West 477 549 45,000  Level Minneapolis Center
01:10PM 39.9278 -98.1336 257° West 479 551 45,000  Level Minneapolis Center
01:11PM 39.8958 -98.3031 256° West 480 552 45,000  Level Minneapolis Center
01:12PM 39.8636 -98.4731 256° West 482 555 45,000  Level Minneapolis Center
01:14PM 39.8317 -98.6428 256° West 481 554 45,000  Level Minneapolis Center
01:15PM 39.7986 -98.8111 256° West 481 554 45,000  Level Minneapolis Center
01:15PM 39.7797 -98.9122 256° West 478 550 45,000  Level Denver Center
01:16PM 39.7472 -99.0817 256° West 481 554 45,000  Level Denver Center
01:17PM 39.7069 -99.2828 255° West 479 551 45,000  Level Denver Center
01:18PM 39.6747 -99.4486 256° West 473 544 45,000  Level Denver Center
01:19PM 39.6411 -99.6153 255° West 475 547 45,000  Level Denver Center
01:20PM 39.6086 -99.7789 256° West 470 541 45,000  Level Denver Center
01:21PM 39.5719 -99.9575 255° West 465 535 45,000  Level Denver Center
01:22PM 39.5456 -100.0886 255° West 468 539 45,000  Level Denver Center
01:23PM 39.5025 -100.2978 255° West 469 540 45,000  Level Denver Center
01:25PM 39.4694 -100.4517 254° West 465 535 45,000  Level Denver Center
01:26PM 39.4378 -100.6089 255° West 469 540 45,000  Level Denver Center
01:27PM 39.3989 -100.7864 254° West 461 531 45,000  Level Denver Center
01:28PM 39.3667 -100.9422 255° West 464 534 45,000  Level Denver Center
01:29PM 39.3289 -101.1208 255° West 463 533 45,000  Level Denver Center
01:30PM 39.2956 -101.2739 254° West 463 533 45,000  Level Denver Center
01:31PM 39.2561 -101.4536 254° West 467 537 45,000  Level Denver Center
01:32PM 39.2228 -101.6083 255° West 467 537 45,000  Level Denver Center
01:33PM 39.1850 -101.7758 254° West 468 539 45,000  Level Denver Center
01:34PM 39.1447 -101.9567 254° West 471 542 45,000  Level Denver Center
01:35PM 39.1094 -102.1119 254° West 471 542 45,000  Level Denver Center
01:36PM 39.0686 -102.2944 254° West 475 547 45,000  Level Denver Center
01:37PM 39.0328 -102.4503 254° West 475 547 45,000  Level Denver Center
01:38PM 38.9914 -102.6319 254° West 476 548 45,000  Level Denver Center
01:39PM 38.9533 -102.7947 253° West 479 551 45,000  Level Denver Center
01:40PM 38.9142 -102.9647 254° West 474 545 45,000  Level Denver Center
01:41PM 38.8769 -103.1281 254° West 476 548 45,000  Level Denver Center
01:42PM 38.8378 -103.2919 253° West 479 551 45,000  Level Denver Center
01:43PM 38.7964 -103.4686 253° West 476 548 45,000  Level Denver Center
01:44PM 38.7583 -103.6236 253° West 477 549 45,000  Level Denver Center
01:45PM 38.7147 -103.8031 253° West 475 547 45,000  Level Denver Center
01:46PM 38.6772 -103.9558 253° West 472 543 45,000  Level Denver Center
01:47PM 38.6353 -104.1286 253° West 468 539 45,000  Level Denver Center
01:48PM 38.5967 -104.2881 253° West 467 537 45,000  Level Denver Center
01:49PM 38.5567 -104.4469 252° West 468 539 45,000  Level Denver Center
01:50PM 38.5167 -104.6056 252° West 468 539 45,000  Level Denver Center
01:51PM 38.4775 -104.7642 253° West 468 539 45,000  Level Denver Center
01:52PM 38.4375 -104.9228 252° West 468 539 45,000  Level Denver Center
01:53PM 38.3889 -105.1131 252° West 469 540 45,000  Level Denver Center
01:55PM 38.3492 -105.2717 252° West 469 540 45,000  Level Denver Center
01:56PM 38.3042 -105.4422 251° West 466 536 45,000  Level Denver Center
01:57PM 38.2644 -105.5942 252° West 470 541 45,000  Level Denver Center
01:58PM 38.2267 -105.7444 252° West 469 540 45,000  Level Denver Center
01:59PM 38.1797 -105.9200 251° West 470 541 45,000  Level Denver Center
02:00PM 38.1397 -106.0700 251° West 469 540 45,000  Level Denver Center
02:01PM 38.0972 -106.2278 251° West 471 542 45,000  Level Denver Center
02:02PM 38.0514 -106.3969 251° West 473 544 45,000  Level Denver Center
02:03PM 38.0053 -106.5717 252° West 466 536 45,000  Level Denver Center
02:04PM 37.9642 -106.7211 251° West 468 539 45,000  Level Denver Center
02:05PM 37.9103 -106.9206 251° West 469 540 45,000  Level Denver Center
02:06PM 37.8686 -107.0683 250° West 466 536 45,000  Level Denver Center
02:07PM 37.8208 -107.2472 251° West 464 534 45,000  Level Denver Center
02:08PM 37.7792 -107.3931 250° West 461 531 45,000  Level Denver Center
02:09PM 37.7308 -107.5647 250° West 464 534 45,000  Level Denver Center
02:10PM 37.6825 -107.7356 250° West 465 535 45,000  Level Denver Center
02:12PM 37.6339 -107.9058 250° West 463 533 45,000  Level Denver Center
02:13PM 37.5775 -108.1036 250° West 471 542 45,000  Level Denver Center
02:14PM 37.5358 -108.2500 250° West 468 539 45,000  Level Denver Center
02:15PM 37.4872 -108.4186 250° West 462 532 45,000  Level Denver Center
02:16PM 37.4453 -108.5625 250° West 458 527 45,000  Level Denver Center
02:17PM 37.3886 -108.7575 250° West 464 534 45,000  Level Denver Center
02:18PM 37.3469 -108.9003 250° West 457 526 45,000  Level Denver Center
02:19PM 37.2964 -109.0706 250° West 465 535 45,000  Level Denver Center
02:20PM 37.2542 -109.2125 250° West 459 528 45,000  Level Denver Center
02:21PM 37.2036 -109.3808 249° West 461 531 45,000  Level Denver Center
02:22PM 37.1592 -109.5267 249° West 465 535 45,000  Level Denver Center
02:23PM 37.1081 -109.6956 249° West 466 536 45,000  Level Denver Center
02:24PM 37.0717 -109.8167 249° West 466 536 45,000  Level Denver Center
02:25PM 37.0131 -110.0083 249° West 463 533 45,000  Level Denver Center
02:26PM 36.9683 -110.1536 249° West 467 537 45,000  Level Denver Center
02:27PM 36.9150 -110.3256 249° West 465 535 45,000  Level Denver Center
02:28PM 36.8669 -110.4756 248° West 464 534 45,000  Level Denver Center
02:29PM 36.8197 -110.6264 249° West 466 536 45,000  Level Denver Center
02:31PM 36.7722 -110.7769 249° West 466 536 45,000  Level Denver Center
02:32PM 36.7181 -110.9561 249° West 462 532 45,000  Level Denver Center
02:33PM 36.6692 -111.1053 248° West 462 532 45,000  Level Denver Center
02:34PM 36.6006 -111.3167 248° West 468 539 45,000  Level Denver Center
02:35PM 36.5525 -111.4667 248° West 467 537 45,000  Level Denver Center
02:36PM 36.5042 -111.6167 248° West 467 537 45,000  Level Denver Center
02:37PM 36.4547 -111.7681 248° West 470 541 45,000  Level Denver Center
02:38PM 36.4147 -111.8897 248° West 471 542 45,000  Level Los Angeles Center
02:39PM 36.3653 -112.0397 248° West 470 541 45,000  Level Los Angeles Center
02:40PM 36.3150 -112.1908 248° West 472 543 45,000  Level Los Angeles Center
02:41PM 36.2653 -112.3411 248° West 471 542 45,000  Level Los Angeles Center
02:42PM 36.2058 -112.5203 248° West 468 539 45,000  Level Los Angeles Center
02:43PM 36.1558 -112.6686 247° West 466 536 45,000  Level Los Angeles Center
02:44PM 36.1069 -112.8131 247° West 458 527 45,000  Level Los Angeles Center
02:45PM 36.0581 -112.9581 247° West 457 526 45,000  Level Los Angeles Center
02:46PM 36.0094 -113.1022 247° West 455 524 45,000  Level Los Angeles Center
02:47PM 35.9528 -113.2686 247° West 455 524 45,000  Level Los Angeles Center
02:48PM 35.9039 -113.4100 247° West 454 522 45,000  Level Los Angeles Center
02:49PM 35.8558 -113.5503 247° West 452 520 45,000  Level Los Angeles Center
02:50PM 35.8069 -113.6933 247° West 447 514 45,000  Level Los Angeles Center
02:51PM 35.7569 -113.8336 246° West 446 513 45,000  Level Los Angeles Center
02:52PM 35.7006 -113.9956 247° West 449 517 45,000 -240 Level Los Angeles Center
02:53PM 35.6511 -114.1361 247° West 450 518 44,600 -960 Descending Los Angeles Center
02:54PM 35.5950 -114.2919 246° West 464 534 43,100 -1,440 Descending Los Angeles Center
02:56PM 35.5408 -114.4442 246° West 480 552 41,700 -1,380 Descending Los Angeles Center
02:57PM 35.4867 -114.5939 246° West 477 549 40,300 -1,440 Descending Los Angeles Center
02:58PM 35.4342 -114.7403 246° West 470 541 38,800 -1,440 Descending Los Angeles Center
02:59PM 35.3800 -114.8889 246° West 473 544 37,400 -1,380 Descending Los Angeles Center
03:00PM 35.3269 -115.0372 246° West 475 547 36,000 -1,560 Descending Los Angeles Center
03:01PM 35.2628 -115.2128 246° West 469 540 34,200 -1,560 Descending Los Angeles Center
03:02PM 35.2092 -115.3581 246° West 466 536 32,800 -1,260 Descending Los Angeles Center
03:03PM 35.1622 -115.4858 246° West 470 541 31,600 -1,440 Descending Los Angeles Center
03:04PM 35.0989 -115.6572 246° West 462 532 29,900 -1,500 Descending Los Angeles Center
03:05PM 35.0472 -115.7969 246° West 455 524 28,500 -1,380 Descending Los Angeles Center
03:06PM 34.9942 -115.9381 245° Southwest 457 526 27,100 -1,380 Descending Los Angeles Center
03:07PM 34.9406 -116.0783 245° Southwest 458 527 25,700 -1,380 Descending Los Angeles Center
03:08PM 34.8861 -116.2200 245° Southwest 459 528 24,300 -1,380 Descending Los Angeles Center
03:09PM 34.8375 -116.3600 247° West 454 522 22,900 -1,260 Descending Los Angeles Center
03:10PM 34.8011 -116.5356 256° West 444 511 21,700 -960 Descending Los Angeles Center
03:11PM 34.7850 -116.6817 262° West 438 504 20,900 -840 Descending Los Angeles Center
03:12PM 34.7694 -116.8308 263° West 443 510 20,000 -900 Descending Los Angeles Center
03:13PM 34.7517 -116.9819 262° West 450 518 19,100 -900 Descending Los Angeles Center
03:14PM 34.7361 -117.1319 263° West 447 514 18,200 -780 Descending Los Angeles Center
03:15PM 34.7194 -117.2803 262° West 442 509 17,500 -780 Descending Los Angeles Center
03:16PM 34.7025 -117.4275 262° West 437 503 16,600 -960 Descending Los Angeles Center
03:17PM 34.6825 -117.6028 262° West 435 501 15,600 -960 Descending Los Angeles Center
03:18PM 34.6661 -117.7486 262° West 434 499 14,700 -960 Descending Los Angeles Center
03:19PM 34.6497 -117.8894 262° West 423 487 13,700 -1,080 Descending Los Angeles Center
03:20PM 34.6369 -118.0139 263° West 374 430 12,500 -1,200 Descending Los Angeles Center
03:21PM 34.6197 -118.1161 258° West 315 362 11,300 -1,260 Descending Los Angeles Center
03:22PM 34.5967 -118.2206 255° West 295 339 9,900 -1,320 Descending Los Angeles Center
03:23PM 34.5753 -118.3183 255° West 298 343 8,600 -900 Descending Los Angeles Center
03:24PM 34.5544 -118.4075 254° West 279 321 8,100 -780 Descending Los Angeles Center
03:26PM 34.4992 -118.4858 229° Southwest 255 293 7,100 -900 Descending Los Angeles Center
03:27PM 34.4344 -118.5067 195° South 239 275 6,300 -840 Descending Los Angeles Center
03:28PM 34.3636 -118.5064 180° South 213 245 5,200 -1,020 Descending Los Angeles Center
03:29PM 34.3092 -118.4992 174° South 204 235 4,100 -1,320 Descending Los Angeles Center
03:30PM 34.2672 -118.4967 177° South 173 199 2,500 -1,500 Descending Los Angeles Center
03:31PM 34.2272 -118.4931 176° South 155 178 1,100 -1,380 Descending Los Angeles Center
03:33PM 34.2098 -118.4900 180° South  Level Estimated
03:40PM 34.2098 -118.4900 180° South  Level Estimated